createdAt,value
2022-09-28T00:02:58.408Z,100.00
2022-09-28T00:06:02.681Z,100.00
2022-09-28T00:09:05.160Z,100.00
2022-09-28T00:12:07.675Z,100.00
2022-09-28T00:15:10.144Z,100.00
2022-09-28T00:18:14.679Z,100.00
2022-09-28T00:21:21.566Z,100.00
2022-09-28T00:24:27.454Z,100.00
2022-09-28T00:27:33.112Z,100.00
2022-09-28T00:30:35.574Z,100.00
2022-09-28T00:33:37.840Z,100.00
2022-09-28T00:36:43.136Z,100.00
2022-09-28T00:39:45.754Z,100.00
2022-09-28T00:42:48.550Z,100.00
2022-09-28T00:45:56.390Z,100.00
2022-09-28T00:49:03.249Z,100.00
2022-09-28T00:52:06.585Z,100.00
2022-09-28T00:55:11.902Z,100.00
2022-09-28T00:58:17.091Z,100.00
2022-09-28T01:01:19.754Z,100.00
2022-09-28T01:04:24.211Z,100.00
2022-09-28T01:07:32.082Z,100.00
2022-09-28T01:10:34.729Z,100.00
2022-09-28T01:13:37.722Z,99.45
2022-09-28T01:17:06.443Z,99.20
2022-09-28T01:20:24.844Z,99.69
2022-09-28T01:23:45.473Z,100.00
2022-09-28T01:26:52.106Z,100.00
2022-09-28T01:29:57.405Z,100.00
2022-09-28T01:33:05.308Z,100.00
2022-09-28T01:36:07.738Z,100.00
2022-09-28T01:39:16.764Z,100.00
2022-09-28T01:42:24.072Z,100.00
2022-09-28T01:45:29.102Z,100.00
2022-09-28T01:48:35.558Z,100.00
2022-09-28T01:51:48.483Z,100.00
2022-09-28T01:54:55.276Z,100.00
2022-09-28T01:58:02.151Z,100.00
2022-09-28T02:01:19.297Z,100.00
2022-09-28T02:04:29.433Z,100.00
2022-09-28T02:07:31.750Z,100.00
2022-09-28T02:10:40.192Z,100.00
2022-09-28T02:13:45.524Z,100.00
2022-09-28T02:16:49.175Z,100.00
2022-09-28T02:19:51.525Z,98.50
2022-09-28T02:22:55.967Z,98.87
2022-09-28T02:26:03.540Z,98.85
2022-09-28T02:29:06.511Z,99.65
2022-09-28T02:32:09.112Z,97.64
2022-09-28T02:35:12.347Z,98.27
2022-09-28T02:38:15.163Z,99.67
2022-09-28T02:41:26.567Z,100.00
2022-09-28T02:44:42.116Z,99.79
2022-09-28T02:48:00.742Z,97.76
2022-09-28T02:51:07.388Z,96.32
2022-09-28T02:54:09.784Z,96.95
2022-09-28T02:57:12.377Z,96.56
2022-09-28T03:00:18.151Z,96.45
2022-09-28T03:03:31.104Z,100.00
2022-09-28T03:06:39.501Z,100.00
2022-09-28T03:09:50.870Z,100.00
2022-09-28T03:12:53.897Z,99.61
2022-09-28T03:16:10.184Z,100.00
2022-09-28T03:19:13.587Z,100.00
2022-09-28T03:22:16.174Z,100.00
2022-09-28T03:25:19.370Z,100.00
2022-09-28T03:28:22.718Z,99.68
2022-09-28T03:31:25.074Z,100.00
2022-09-28T03:34:27.672Z,100.00
2022-09-28T03:37:30.285Z,99.45
2022-09-28T03:40:33.215Z,97.64
2022-09-28T03:43:35.584Z,99.82
2022-09-28T03:46:38.255Z,97.86
2022-09-28T03:49:40.544Z,98.40
2022-09-28T03:52:44.413Z,98.09
2022-09-28T03:55:46.591Z,100.00
2022-09-28T03:58:49.575Z,100.00
2022-09-28T04:01:52.299Z,100.00
2022-09-28T04:04:54.861Z,100.00
2022-09-28T04:07:57.854Z,100.00
2022-09-28T04:11:01.468Z,100.00
2022-09-28T04:14:04.796Z,100.00
2022-09-28T04:17:07.438Z,100.00
2022-09-28T04:20:09.936Z,100.00
2022-09-28T04:23:12.571Z,100.00
2022-09-28T04:26:19.318Z,99.50
2022-09-28T04:29:22.990Z,97.23
2022-09-28T04:32:26.983Z,98.80
2022-09-28T04:35:29.487Z,99.17
2022-09-28T04:38:51.857Z,97.93
2022-09-28T04:41:55.119Z,97.97
2022-09-28T04:44:58.776Z,97.23
2022-09-28T04:48:01.683Z,99.58
2022-09-28T04:51:04.193Z,100.00
2022-09-28T04:54:06.719Z,100.00
2022-09-28T04:57:09.118Z,100.00
2022-09-28T05:00:13.219Z,99.94
2022-09-28T05:03:17.691Z,99.56
2022-09-28T05:06:22.682Z,98.73
2022-09-28T05:09:25.438Z,99.78
2022-09-28T05:12:27.945Z,98.82
2022-09-28T05:15:31.044Z,99.29
2022-09-28T05:18:34.020Z,98.46
2022-09-28T05:21:36.499Z,100.00
2022-09-28T05:24:39.247Z,100.00
2022-09-28T05:27:41.524Z,100.00
2022-09-28T05:30:52.293Z,100.00
2022-09-28T05:33:55.645Z,100.00
2022-09-28T05:36:58.446Z,100.00
2022-09-28T05:40:00.857Z,100.00
2022-09-28T05:43:04.053Z,100.00
2022-09-28T05:46:07.482Z,100.00
2022-09-28T05:49:10.827Z,100.00
2022-09-28T05:52:13.861Z,98.45
2022-09-28T05:55:16.781Z,84.86
2022-09-28T05:58:19.308Z,58.81
2022-09-28T06:01:22.030Z,43.29
2022-09-28T06:04:24.949Z,43.01
2022-09-28T06:07:27.270Z,45.65
2022-09-28T06:10:30.332Z,52.49
2022-09-28T06:13:32.597Z,57.48
2022-09-28T06:16:37.358Z,60.09
2022-09-28T06:19:41.772Z,54.04
2022-09-28T06:22:50.661Z,56.62
2022-09-28T06:25:52.869Z,59.18
2022-09-28T06:28:55.671Z,63.40
2022-09-28T06:31:58.993Z,68.43
2022-09-28T06:35:01.552Z,67.39
2022-09-28T06:38:04.499Z,69.33
2022-09-28T06:41:07.439Z,70.27
2022-09-28T06:44:09.724Z,72.40
2022-09-28T06:47:19.056Z,72.36
2022-09-28T06:50:22.703Z,74.16
2022-09-28T06:53:25.495Z,75.03
2022-09-28T06:56:32.673Z,74.84
2022-09-28T06:59:35.844Z,74.42
2022-09-28T07:02:38.257Z,75.33
2022-09-28T07:05:42.755Z,78.37
2022-09-28T07:08:54.668Z,74.10
2022-09-28T07:12:10.019Z,77.87
2022-09-28T07:15:13.526Z,72.10
2022-09-28T07:18:17.890Z,74.27
2022-09-28T07:21:28.688Z,75.30
2022-09-28T07:24:33.315Z,70.07
2022-09-28T07:27:42.605Z,75.80
2022-09-28T07:30:45.447Z,69.86
2022-09-28T07:33:51.048Z,70.37
2022-09-28T07:36:58.113Z,72.19
2022-09-28T07:40:19.452Z,69.32
2022-09-28T07:43:22.680Z,65.88
2022-09-28T07:46:25.012Z,66.55
2022-09-28T07:49:30.726Z,68.57
2022-09-28T07:52:35.209Z,69.32
2022-09-28T07:55:38.415Z,69.96
2022-09-28T07:58:41.131Z,62.97
2022-09-28T08:01:45.133Z,63.52
2022-09-28T08:04:49.268Z,65.77
2022-09-28T08:07:52.951Z,63.24
2022-09-28T08:10:57.169Z,64.72
2022-09-28T08:14:00.405Z,66.35
2022-09-28T08:17:04.353Z,63.45
2022-09-28T08:20:25.989Z,66.36
2022-09-28T08:23:28.672Z,67.09
2022-09-28T08:26:31.019Z,65.36
2022-09-28T08:29:33.673Z,65.45
2022-09-28T08:32:36.147Z,65.17
2022-09-28T08:35:41.075Z,66.41
2022-09-28T08:38:43.779Z,68.60
2022-09-28T08:41:47.559Z,70.02
2022-09-28T08:44:57.741Z,70.27
2022-09-28T08:48:19.531Z,70.58
2022-09-28T08:51:26.833Z,69.43
2022-09-28T08:54:39.479Z,70.51
2022-09-28T08:57:49.464Z,69.84
2022-09-28T09:00:54.179Z,67.66
2022-09-28T09:03:58.144Z,65.82
2022-09-28T09:07:01.148Z,69.18
2022-09-28T09:10:11.611Z,66.77
2022-09-28T09:13:19.993Z,69.12
2022-09-28T09:16:31.935Z,69.87
2022-09-28T09:19:46.007Z,68.51
2022-09-28T09:22:54.785Z,66.00
2022-09-28T09:26:03.636Z,67.52
2022-09-28T09:29:06.055Z,69.90
2022-09-28T09:32:16.591Z,68.94
2022-09-28T09:35:38.136Z,67.22
2022-09-28T09:38:55.444Z,68.29
2022-09-28T09:42:01.050Z,66.38
2022-09-28T09:45:15.896Z,65.44
2022-09-28T09:48:25.165Z,65.68
2022-09-28T09:51:36.577Z,67.37
2022-09-28T09:54:49.615Z,65.88
2022-09-28T09:58:09.931Z,64.43
2022-09-28T10:01:15.779Z,64.42
2022-09-28T10:04:28.137Z,65.11
2022-09-28T10:07:43.571Z,62.88
2022-09-28T10:10:49.483Z,62.18
2022-09-28T10:13:52.360Z,61.95
2022-09-28T10:16:58.769Z,62.17
2022-09-28T10:20:03.647Z,62.99
2022-09-28T10:23:14.456Z,61.77
2022-09-28T10:26:25.046Z,60.58
2022-09-28T10:29:35.040Z,60.37
2022-09-28T10:32:37.480Z,61.96
2022-09-28T10:35:42.271Z,62.07
2022-09-28T10:38:47.740Z,62.27
2022-09-28T10:41:51.899Z,62.10
2022-09-28T10:44:58.942Z,60.04
2022-09-28T10:48:04.245Z,62.02
2022-09-28T10:51:07.220Z,63.38
2022-09-28T10:54:18.339Z,63.09
2022-09-28T10:57:40.793Z,60.12
2022-09-28T11:00:44.713Z,61.76
2022-09-28T11:03:57.700Z,59.55
2022-09-28T11:07:01.839Z,59.77
2022-09-28T11:10:04.759Z,61.02
2022-09-28T11:13:09.483Z,63.82
2022-09-28T11:16:22.794Z,62.86
2022-09-28T11:19:32.127Z,64.26
2022-09-28T11:22:34.434Z,63.68
2022-09-28T11:25:39.559Z,66.32
2022-09-28T11:28:43.131Z,63.75
2022-09-28T11:31:46.617Z,65.59
2022-09-28T11:35:03.297Z,61.18
2022-09-28T11:38:08.861Z,60.95
2022-09-28T11:41:24.132Z,61.64
2022-09-28T11:44:30.980Z,59.81
2022-09-28T11:47:42.334Z,60.98
2022-09-28T11:50:52.506Z,59.90
2022-09-28T11:53:58.600Z,58.01
2022-09-28T11:57:03.089Z,58.78
2022-09-28T12:00:10.686Z,59.59
2022-09-28T12:03:22.789Z,58.17
2022-09-28T12:06:31.612Z,57.70
2022-09-28T12:09:38.945Z,57.46
2022-09-28T12:12:57.018Z,57.89
2022-09-28T12:16:27.643Z,57.91
2022-09-28T12:19:34.831Z,57.67
2022-09-28T12:22:55.468Z,57.77
2022-09-28T12:25:59.577Z,58.70
2022-09-28T12:29:06.547Z,58.87
2022-09-28T12:32:27.895Z,57.06
2022-09-28T12:35:39.404Z,59.84
2022-09-28T12:39:19.094Z,59.21
2022-09-28T12:42:53.370Z,57.81
2022-09-28T12:46:11.085Z,58.45
2022-09-28T12:50:13.870Z,60.65
2022-09-28T12:56:03.764Z,59.92
2022-09-28T12:59:12.209Z,60.58
2022-09-28T13:02:14.913Z,61.30
2022-09-28T13:05:36.184Z,62.81
2022-09-28T13:08:55.296Z,58.79
2022-09-28T13:12:00.967Z,57.87
2022-09-28T13:15:06.465Z,57.09
2022-09-28T13:18:35.593Z,57.62
2022-09-28T13:21:43.914Z,57.98
2022-09-28T13:24:47.352Z,58.23
2022-09-28T13:27:55.519Z,58.66
2022-09-28T13:34:10.519Z,59.15
2022-09-28T13:37:21.966Z,58.60
2022-09-28T13:40:44.237Z,59.74
2022-09-28T13:43:49.850Z,58.91
2022-09-28T13:47:03.453Z,59.57
2022-09-28T13:50:15.481Z,57.14
2022-09-28T13:53:20.865Z,56.84
2022-09-28T13:56:24.486Z,55.96
2022-09-28T13:59:28.684Z,57.72
2022-09-28T14:02:44.165Z,57.52
2022-09-28T14:05:47.396Z,56.56
2022-09-28T14:08:52.642Z,57.24
2022-09-28T14:11:59.470Z,58.24
2022-09-28T14:15:02.577Z,56.76
2022-09-28T14:18:10.900Z,55.92
2022-09-28T14:21:22.336Z,55.42
2022-09-28T14:24:45.053Z,55.47
2022-09-28T14:28:06.616Z,54.84
2022-09-28T14:31:15.269Z,54.92
2022-09-28T14:34:36.388Z,54.72
2022-09-28T14:37:59.676Z,54.67
2022-09-28T14:41:10.192Z,55.01
2022-09-28T14:44:17.224Z,53.46
2022-09-28T14:47:33.584Z,54.12
2022-09-28T14:50:36.496Z,55.76
2022-09-28T14:53:39.782Z,55.21
2022-09-28T14:56:45.357Z,55.80
2022-09-28T14:59:47.804Z,55.97
2022-09-28T15:02:52.601Z,56.75
2022-09-28T15:05:55.310Z,56.87
2022-09-28T15:08:57.797Z,57.23
2022-09-28T15:12:07.608Z,58.25
2022-09-28T15:15:20.245Z,57.69
2022-09-28T15:18:27.601Z,58.81
2022-09-28T15:21:37.792Z,59.36
2022-09-28T15:24:45.172Z,60.66
2022-09-28T15:27:52.655Z,59.42
2022-09-28T15:31:02.416Z,60.16
2022-09-28T15:34:23.860Z,60.37
2022-09-28T15:37:40.416Z,60.77
2022-09-28T15:40:44.537Z,61.26
2022-09-28T15:44:03.533Z,61.13
2022-09-28T15:47:14.198Z,59.70
2022-09-28T15:50:28.194Z,61.64
2022-09-28T15:53:31.306Z,60.04
2022-09-28T15:56:50.201Z,61.28
2022-09-28T15:59:56.978Z,61.87
2022-09-28T16:03:05.501Z,62.64
2022-09-28T16:06:09.166Z,61.91
2022-09-28T16:09:31.518Z,62.84
2022-09-28T16:12:37.183Z,62.31
2022-09-28T16:15:39.539Z,63.33
2022-09-28T16:18:47.181Z,63.37
2022-09-28T16:21:51.187Z,63.61
2022-09-28T16:24:57.727Z,64.09
2022-09-28T16:28:00.826Z,63.45
2022-09-28T16:31:03.647Z,65.33
2022-09-28T16:34:11.569Z,65.89
2022-09-28T16:37:33.448Z,65.37
2022-09-28T16:40:38.766Z,66.06
2022-09-28T16:43:41.334Z,66.36
2022-09-28T16:46:44.696Z,67.79
2022-09-28T16:49:48.083Z,66.99
2022-09-28T16:53:16.835Z,68.16
2022-09-28T16:56:19.456Z,69.29
2022-09-28T16:59:22.304Z,66.32
2022-09-28T17:02:45.807Z,66.80
2022-09-28T17:05:49.983Z,66.95
2022-09-28T17:08:52.873Z,67.74
2022-09-28T17:11:57.017Z,66.09
2022-09-28T17:15:00.311Z,66.65
2022-09-28T17:18:02.713Z,67.39
2022-09-28T17:21:06.823Z,66.05
2022-09-28T17:24:09.177Z,66.56
2022-09-28T17:27:15.708Z,66.20
2022-09-28T17:30:20.258Z,67.78
2022-09-28T17:33:24.852Z,67.50
2022-09-28T17:36:27.244Z,69.20
2022-09-28T17:39:31.721Z,72.62
2022-09-28T17:42:33.973Z,77.42
2022-09-28T17:45:39.521Z,80.74
2022-09-28T17:48:46.125Z,84.71
2022-09-28T17:51:50.285Z,91.59
2022-09-28T17:54:52.575Z,91.48
2022-09-28T17:57:55.866Z,97.24
2022-09-28T18:00:58.186Z,99.91
2022-09-28T18:04:01.732Z,100.00
2022-09-28T18:07:04.063Z,100.00
2022-09-28T18:10:06.935Z,100.00
2022-09-28T18:13:09.996Z,100.00
2022-09-28T18:16:13.484Z,100.00
2022-09-28T18:19:16.491Z,100.00
2022-09-28T18:22:19.165Z,100.00
2022-09-28T18:25:21.540Z,100.00
2022-09-28T18:28:24.425Z,100.00
2022-09-28T18:31:27.718Z,100.00
2022-09-28T18:34:30.388Z,100.00
2022-09-28T18:37:40.322Z,100.00
2022-09-28T18:40:43.159Z,100.00
2022-09-28T18:43:49.390Z,100.00
2022-09-28T18:46:52.074Z,100.00
2022-09-28T18:49:54.512Z,100.00
2022-09-28T18:53:11.337Z,100.00
2022-09-28T18:56:18.207Z,100.00
2022-09-28T18:59:20.905Z,100.00
2022-09-28T19:02:23.551Z,100.00
2022-09-28T19:05:27.443Z,100.00
2022-09-28T19:08:29.713Z,100.00
2022-09-28T19:11:32.494Z,100.00
2022-09-28T19:14:34.732Z,100.00
2022-09-28T19:17:37.606Z,100.00
2022-09-28T19:20:39.940Z,100.00
2022-09-28T19:23:49.151Z,100.00
2022-09-28T19:26:53.625Z,100.00
2022-09-28T19:29:56.184Z,100.00
2022-09-28T19:32:58.937Z,100.00
2022-09-28T19:36:02.646Z,100.00
2022-09-28T19:39:07.113Z,100.00
2022-09-28T19:42:09.778Z,100.00
2022-09-28T19:45:12.339Z,100.00
2022-09-28T19:48:14.905Z,100.00
2022-09-28T19:51:18.059Z,100.00
2022-09-28T19:54:22.500Z,100.00
2022-09-28T19:57:26.058Z,100.00
2022-09-28T20:00:28.664Z,100.00
2022-09-28T20:03:31.268Z,100.00
2022-09-28T20:06:33.577Z,100.00
2022-09-28T20:09:36.255Z,100.00
2022-09-28T20:12:38.913Z,100.00
2022-09-28T20:15:41.617Z,100.00
2022-09-28T20:18:49.687Z,100.00
2022-09-28T20:21:52.292Z,100.00
2022-09-28T20:24:54.554Z,100.00
2022-09-28T20:27:57.123Z,100.00
2022-09-28T20:31:03.821Z,100.00
2022-09-28T20:34:06.982Z,100.00
2022-09-28T20:37:09.253Z,100.00
2022-09-28T20:40:11.948Z,100.00
2022-09-28T20:43:15.185Z,100.00
2022-09-28T20:46:19.343Z,100.00
2022-09-28T20:49:21.796Z,100.00
2022-09-28T20:52:24.801Z,100.00
2022-09-28T20:55:27.143Z,100.00
2022-09-28T20:58:30.159Z,100.00
2022-09-28T21:01:32.583Z,100.00
2022-09-28T21:04:35.746Z,100.00
2022-09-28T21:07:38.005Z,100.00
2022-09-28T21:10:43.370Z,100.00
2022-09-28T21:13:45.703Z,100.00
2022-09-28T21:16:48.279Z,100.00
2022-09-28T21:19:50.555Z,100.00
2022-09-28T21:22:53.119Z,100.00
2022-09-28T21:26:04.600Z,100.00
2022-09-28T21:29:10.639Z,100.00
2022-09-28T21:32:12.929Z,100.00
2022-09-28T21:35:15.605Z,100.00
2022-09-28T21:38:17.891Z,100.00
2022-09-28T21:41:20.630Z,100.00
2022-09-28T21:44:23.032Z,100.00
2022-09-28T21:47:25.512Z,100.00
2022-09-28T21:50:27.759Z,100.00
2022-09-28T21:53:31.622Z,100.00
2022-09-28T21:56:34.033Z,100.00
2022-09-28T21:59:36.586Z,100.00
2022-09-28T22:02:39.122Z,100.00
2022-09-28T22:05:41.903Z,100.00
2022-09-28T22:08:45.529Z,100.00
2022-09-28T22:11:49.099Z,100.00
2022-09-28T22:14:51.344Z,100.00
2022-09-28T22:17:53.908Z,100.00
2022-09-28T22:21:00.463Z,100.00
2022-09-28T22:24:04.166Z,100.00
2022-09-28T22:27:06.443Z,100.00
2022-09-28T22:30:09.212Z,100.00
2022-09-28T22:33:11.528Z,100.00
2022-09-28T22:36:16.641Z,100.00
2022-09-28T22:39:18.910Z,100.00
2022-09-28T22:42:21.826Z,100.00
2022-09-28T22:45:24.136Z,100.00
2022-09-28T22:48:26.632Z,100.00
2022-09-28T22:51:29.676Z,100.00
2022-09-28T22:54:32.299Z,100.00
2022-09-28T22:57:34.540Z,100.00
2022-09-28T23:00:37.259Z,100.00
2022-09-28T23:03:40.477Z,100.00
2022-09-28T23:06:42.997Z,100.00
2022-09-28T23:09:45.247Z,100.00
2022-09-28T23:12:47.813Z,100.00
2022-09-28T23:15:56.301Z,100.00
2022-09-28T23:18:59.225Z,100.00
2022-09-28T23:22:01.691Z,100.00
2022-09-28T23:25:22.660Z,100.00
2022-09-28T23:28:25.951Z,100.00
2022-09-28T23:31:29.905Z,100.00
2022-09-28T23:34:32.169Z,100.00
2022-09-28T23:37:35.037Z,100.00
2022-09-28T23:40:37.312Z,100.00
2022-09-28T23:43:39.977Z,100.00
2022-09-28T23:46:42.875Z,100.00
2022-09-28T23:49:45.591Z,100.00
2022-09-28T23:52:48.129Z,100.00
2022-09-28T23:55:50.804Z,100.00
2022-09-28T23:58:53.096Z,100.00
